sensor_id;sensor_type;location;lat;lon;timestamp;pressure;altitude;pressure_sealevel;temperature;humidity
66396;BME280;53207;51.378;-1.342;2023-01-28T00:02:01;101776.11;;;18.25;32.75
66396;BME280;53207;51.378;-1.342;2023-01-28T00:04:29;101774.54;;;18.51;32.80
66396;BME280;53207;51.378;-1.342;2023-01-28T00:06:56;101778.82;;;18.18;32.91
66396;BME280;53207;51.378;-1.342;2023-01-28T00:09:23;101787.15;;;18.40;33.01
66396;BME280;53207;51.378;-1.342;2023-01-28T00:11:51;101788.05;;;18.08;33.08
66396;BME280;53207;51.378;-1.342;2023-01-28T00:14:18;101794.61;;;18.32;33.12
66396;BME280;53207;51.378;-1.342;2023-01-28T00:16:45;101795.43;;;18.25;33.17
66396;BME280;53207;51.378;-1.342;2023-01-28T00:19:13;101797.94;;;18.43;33.22
66396;BME280;53207;51.378;-1.342;2023-01-28T00:21:40;101791.38;;;18.34;33.26
66396;BME280;53207;51.378;-1.342;2023-01-28T00:24:07;101789.07;;;18.10;33.27
66396;BME280;53207;51.378;-1.342;2023-01-28T00:26:35;101790.16;;;18.04;33.29
66396;BME280;53207;51.378;-1.342;2023-01-28T00:29:02;101785.13;;;18.20;33.33
66396;BME280;53207;51.378;-1.342;2023-01-28T00:31:29;101783.44;;;17.71;33.31
66396;BME280;53207;51.378;-1.342;2023-01-28T00:33:56;101784.46;;;18.14;33.33
66396;BME280;53207;51.378;-1.342;2023-01-28T00:36:25;101784.90;;;17.87;33.37
66396;BME280;53207;51.378;-1.342;2023-01-28T00:38:54;101782.68;;;18.05;33.39
66396;BME280;53207;51.378;-1.342;2023-01-28T00:41:23;101779.32;;;17.99;33.44
66396;BME280;53207;51.378;-1.342;2023-01-28T00:43:51;101776.75;;;17.87;33.54
66396;BME280;53207;51.378;-1.342;2023-01-28T00:46:20;101777.99;;;17.90;33.49
66396;BME280;53207;51.378;-1.342;2023-01-28T00:48:48;101784.43;;;17.87;33.47
66396;BME280;53207;51.378;-1.342;2023-01-28T00:51:17;101788.22;;;18.11;33.46
66396;BME280;53207;51.378;-1.342;2023-01-28T00:53:45;101784.21;;;17.81;33.47
66396;BME280;53207;51.378;-1.342;2023-01-28T00:56:14;101786.74;;;17.56;33.47
66396;BME280;53207;51.378;-1.342;2023-01-28T00:58:42;101789.08;;;17.76;33.48
66396;BME280;53207;51.378;-1.342;2023-01-28T01:01:11;101790.07;;;17.52;33.43
66396;BME280;53207;51.378;-1.342;2023-01-28T01:03:40;101792.63;;;17.71;33.44
66396;BME280;53207;51.378;-1.342;2023-01-28T01:06:08;101789.38;;;17.66;33.47
66396;BME280;53207;51.378;-1.342;2023-01-28T01:08:36;101789.91;;;17.65;33.45
66396;BME280;53207;51.378;-1.342;2023-01-28T01:11:03;101794.72;;;17.61;33.45
66396;BME280;53207;51.378;-1.342;2023-01-28T01:13:31;101797.02;;;17.56;33.48
66396;BME280;53207;51.378;-1.342;2023-01-28T01:16:03;101796.93;;;17.57;33.42
66396;BME280;53207;51.378;-1.342;2023-01-28T01:18:31;101792.65;;;17.54;33.43
66396;BME280;53207;51.378;-1.342;2023-01-28T01:20:59;101792.27;;;17.54;33.37
66396;BME280;53207;51.378;-1.342;2023-01-28T01:23:26;101795.87;;;17.48;33.41
66396;BME280;53207;51.378;-1.342;2023-01-28T01:25:53;101797.41;;;17.50;33.34
66396;BME280;53207;51.378;-1.342;2023-01-28T01:28:21;101803.23;;;17.74;33.35
66396;BME280;53207;51.378;-1.342;2023-01-28T01:30:49;101801.20;;;17.46;33.31
66396;BME280;53207;51.378;-1.342;2023-01-28T01:33:16;101799.31;;;17.45;33.29
66396;BME280;53207;51.378;-1.342;2023-01-28T01:35:43;101795.00;;;17.42;33.29
66396;BME280;53207;51.378;-1.342;2023-01-28T01:38:11;101789.29;;;17.33;33.35
66396;BME280;53207;51.378;-1.342;2023-01-28T01:40:38;101790.86;;;17.32;33.32
66396;BME280;53207;51.378;-1.342;2023-01-28T01:43:15;101787.02;;;17.33;33.28
66396;BME280;53207;51.378;-1.342;2023-01-28T01:45:43;101789.24;;;17.34;33.22
66396;BME280;53207;51.378;-1.342;2023-01-28T01:48:16;101789.38;;;17.30;33.25
66396;BME280;53207;51.378;-1.342;2023-01-28T01:50:50;101784.47;;;17.27;33.23
66396;BME280;53207;51.378;-1.342;2023-01-28T01:53:19;101781.14;;;17.31;33.15
66396;BME280;53207;51.378;-1.342;2023-01-28T01:55:50;101782.19;;;17.27;33.18
66396;BME280;53207;51.378;-1.342;2023-01-28T01:58:22;101781.78;;;17.24;33.17
66396;BME280;53207;51.378;-1.342;2023-01-28T02:00:50;101777.01;;;17.22;33.15
66396;BME280;53207;51.378;-1.342;2023-01-28T02:03:22;101780.93;;;17.20;33.14
66396;BME280;53207;51.378;-1.342;2023-01-28T02:05:53;101778.72;;;17.48;33.10
66396;BME280;53207;51.378;-1.342;2023-01-28T02:08:21;101780.59;;;17.68;33.10
66396;BME280;53207;51.378;-1.342;2023-01-28T02:10:51;101786.40;;;17.18;33.06
66396;BME280;53207;51.378;-1.342;2023-01-28T02:13:21;101786.44;;;17.21;33.01
66396;BME280;53207;51.378;-1.342;2023-01-28T02:15:51;101789.12;;;17.12;33.09
66396;BME280;53207;51.378;-1.342;2023-01-28T02:18:18;101785.89;;;17.12;33.04
66396;BME280;53207;51.378;-1.342;2023-01-28T02:21:02;101789.57;;;17.34;33.05
66396;BME280;53207;51.378;-1.342;2023-01-28T02:23:43;101795.62;;;17.56;33.04
66396;BME280;53207;51.378;-1.342;2023-01-28T02:26:33;101796.25;;;17.02;33.06
66396;BME280;53207;51.378;-1.342;2023-01-28T02:29:13;101799.71;;;17.05;32.99
66396;BME280;53207;51.378;-1.342;2023-01-28T02:31:50;101799.78;;;17.27;33.02
66396;BME280;53207;51.378;-1.342;2023-01-28T02:34:24;101801.67;;;17.02;32.98
66396;BME280;53207;51.378;-1.342;2023-01-28T02:37:00;101802.01;;;17.30;32.93
66396;BME280;53207;51.378;-1.342;2023-01-28T02:39:31;101805.14;;;16.98;32.96
66396;BME280;53207;51.378;-1.342;2023-01-28T02:42:04;101803.03;;;16.99;32.92
66396;BME280;53207;51.378;-1.342;2023-01-28T02:44:32;101800.83;;;17.19;32.96
66396;BME280;53207;51.378;-1.342;2023-01-28T02:47:00;101803.77;;;17.21;32.90
66396;BME280;53207;51.378;-1.342;2023-01-28T02:49:29;101809.70;;;16.90;32.93
66396;BME280;53207;51.378;-1.342;2023-01-28T02:52:07;101812.25;;;17.37;32.93
66396;BME280;53207;51.378;-1.342;2023-01-28T02:54:47;101811.32;;;17.13;32.92
66396;BME280;53207;51.378;-1.342;2023-01-28T02:57:29;101815.38;;;17.11;32.92
66396;BME280;53207;51.378;-1.342;2023-01-28T03:00:03;101824.61;;;17.08;32.92
66396;BME280;53207;51.378;-1.342;2023-01-28T03:02:37;101826.12;;;17.09;32.87
66396;BME280;53207;51.378;-1.342;2023-01-28T03:05:13;101825.83;;;16.79;32.89
66396;BME280;53207;51.378;-1.342;2023-01-28T03:07:43;101825.50;;;17.32;32.82
66396;BME280;53207;51.378;-1.342;2023-01-28T03:10:13;101833.21;;;17.23;32.89
66396;BME280;53207;51.378;-1.342;2023-01-28T03:12:44;101833.05;;;17.24;32.85
66396;BME280;53207;51.378;-1.342;2023-01-28T03:15:17;101834.16;;;17.01;32.85
66396;BME280;53207;51.378;-1.342;2023-01-28T03:17:47;101835.08;;;16.74;32.82
66396;BME280;53207;51.378;-1.342;2023-01-28T03:20:15;101833.47;;;16.98;32.82
66396;BME280;53207;51.378;-1.342;2023-01-28T03:22:46;101837.09;;;16.66;32.85
66396;BME280;53207;51.378;-1.342;2023-01-28T03:25:18;101835.39;;;16.93;32.82
66396;BME280;53207;51.378;-1.342;2023-01-28T03:27:48;101840.20;;;17.11;32.83
66396;BME280;53207;51.378;-1.342;2023-01-28T03:30:21;101838.19;;;16.91;32.78
66396;BME280;53207;51.378;-1.342;2023-01-28T03:32:49;101835.45;;;16.57;32.85
66396;BME280;53207;51.378;-1.342;2023-01-28T03:35:19;101836.73;;;16.61;32.78
66396;BME280;53207;51.378;-1.342;2023-01-28T03:37:48;101843.23;;;17.05;32.80
66396;BME280;53207;51.378;-1.342;2023-01-28T03:40:16;101845.29;;;17.02;32.83
66396;BME280;53207;51.378;-1.342;2023-01-28T03:42:43;101845.51;;;16.80;32.80
66396;BME280;53207;51.378;-1.342;2023-01-28T03:45:11;101838.23;;;16.80;32.76
66396;BME280;53207;51.378;-1.342;2023-01-28T03:47:38;101832.94;;;16.51;32.77
66396;BME280;53207;51.378;-1.342;2023-01-28T03:50:05;101830.59;;;16.75;32.77
66396;BME280;53207;51.378;-1.342;2023-01-28T03:52:32;101833.45;;;16.46;32.79
66396;BME280;53207;51.378;-1.342;2023-01-28T03:55:00;101830.36;;;16.96;32.74
66396;BME280;53207;51.378;-1.342;2023-01-28T03:57:27;101829.24;;;16.69;32.77
66396;BME280;53207;51.378;-1.342;2023-01-28T03:59:54;101823.05;;;16.97;32.70
66396;BME280;53207;51.378;-1.342;2023-01-28T04:02:22;101817.55;;;16.70;32.72
66396;BME280;53207;51.378;-1.342;2023-01-28T04:04:50;101816.82;;;16.85;32.79
66396;BME280;53207;51.378;-1.342;2023-01-28T04:07:17;101820.93;;;16.64;32.75
66396;BME280;53207;51.378;-1.342;2023-01-28T04:09:45;101818.94;;;16.88;32.72
66396;BME280;53207;51.378;-1.342;2023-01-28T04:12:12;101818.67;;;16.60;32.72
66396;BME280;53207;51.378;-1.342;2023-01-28T04:14:39;101814.66;;;16.62;32.70
66396;BME280;53207;51.378;-1.342;2023-01-28T04:17:07;101813.46;;;16.56;32.73
66396;BME280;53207;51.378;-1.342;2023-01-28T04:19:35;101812.03;;;16.83;32.66
66396;BME280;53207;51.378;-1.342;2023-01-28T04:22:05;101811.38;;;16.83;32.65
66396;BME280;53207;51.378;-1.342;2023-01-28T04:24:32;101807.27;;;16.77;32.66
66396;BME280;53207;51.378;-1.342;2023-01-28T04:26:59;101808.92;;;16.78;32.62
66396;BME280;53207;51.378;-1.342;2023-01-28T04:29:27;101817.62;;;16.74;32.64
66396;BME280;53207;51.378;-1.342;2023-01-28T04:31:54;101814.50;;;16.71;32.66
66396;BME280;53207;51.378;-1.342;2023-01-28T04:34:21;101805.39;;;16.67;32.66
66396;BME280;53207;51.378;-1.342;2023-01-28T04:36:48;101810.58;;;16.68;32.63
66396;BME280;53207;51.378;-1.342;2023-01-28T04:39:16;101817.01;;;16.46;32.60
66396;BME280;53207;51.378;-1.342;2023-01-28T04:41:43;101817.26;;;16.65;32.61
66396;BME280;53207;51.378;-1.342;2023-01-28T04:44:10;101806.10;;;16.65;32.57
66396;BME280;53207;51.378;-1.342;2023-01-28T04:46:38;101805.43;;;16.66;32.53
66396;BME280;53207;51.378;-1.342;2023-01-28T04:49:05;101806.50;;;16.64;32.52
66396;BME280;53207;51.378;-1.342;2023-01-28T04:51:32;101803.37;;;16.42;32.48
66396;BME280;53207;51.378;-1.342;2023-01-28T04:54:00;101796.58;;;16.83;32.52
66396;BME280;53207;51.378;-1.342;2023-01-28T04:56:27;101797.28;;;16.63;32.40
66396;BME280;53207;51.378;-1.342;2023-01-28T04:58:55;101797.65;;;16.43;32.36
66396;BME280;53207;51.378;-1.342;2023-01-28T05:01:22;101793.37;;;16.60;32.42
66396;BME280;53207;51.378;-1.342;2023-01-28T05:03:50;101790.03;;;16.56;32.43
66396;BME280;53207;51.378;-1.342;2023-01-28T05:06:17;101792.37;;;16.60;32.34
66396;BME280;53207;51.378;-1.342;2023-01-28T05:08:44;101801.94;;;16.55;32.36
66396;BME280;53207;51.378;-1.342;2023-01-28T05:11:11;101805.92;;;16.54;32.37
66396;BME280;53207;51.378;-1.342;2023-01-28T05:13:39;101802.31;;;16.50;32.38
66396;BME280;53207;51.378;-1.342;2023-01-28T05:16:06;101799.73;;;16.74;32.31
66396;BME280;53207;51.378;-1.342;2023-01-28T05:18:33;101800.89;;;16.49;32.32
66396;BME280;53207;51.378;-1.342;2023-01-28T05:21:01;101807.03;;;16.47;32.32
66396;BME280;53207;51.378;-1.342;2023-01-28T05:23:28;101807.66;;;16.48;32.26
66396;BME280;53207;51.378;-1.342;2023-01-28T05:25:55;101807.92;;;16.71;32.22
66396;BME280;53207;51.378;-1.342;2023-01-28T05:28:23;101810.54;;;16.43;32.27
66396;BME280;53207;51.378;-1.342;2023-01-28T05:30:50;101810.59;;;16.44;32.22
66396;BME280;53207;51.378;-1.342;2023-01-28T05:33:17;101813.29;;;16.42;32.23
66396;BME280;53207;51.378;-1.342;2023-01-28T05:35:45;101815.76;;;16.42;32.18
66396;BME280;53207;51.378;-1.342;2023-01-28T05:38:12;101819.10;;;16.63;32.18
66396;BME280;53207;51.378;-1.342;2023-01-28T05:40:39;101817.83;;;16.36;32.20
66396;BME280;53207;51.378;-1.342;2023-01-28T05:43:07;101814.04;;;16.56;32.21
66396;BME280;53207;51.378;-1.342;2023-01-28T05:45:34;101809.81;;;16.33;32.17
66396;BME280;53207;51.378;-1.342;2023-01-28T05:48:02;101808.17;;;16.29;32.20
66396;BME280;53207;51.378;-1.342;2023-01-28T05:50:29;101809.89;;;16.52;32.14
66396;BME280;53207;51.378;-1.342;2023-01-28T05:52:56;101813.33;;;16.28;32.15
66396;BME280;53207;51.378;-1.342;2023-01-28T05:55:24;101810.29;;;16.48;32.13
66396;BME280;53207;51.378;-1.342;2023-01-28T05:57:51;101815.57;;;16.45;32.14
66396;BME280;53207;51.378;-1.342;2023-01-28T06:00:19;101821.10;;;16.43;32.12
66396;BME280;53207;51.378;-1.342;2023-01-28T06:02:46;101827.57;;;16.41;32.11
66396;BME280;53207;51.378;-1.342;2023-01-28T06:05:13;101832.97;;;16.17;32.13
66396;BME280;53207;51.378;-1.342;2023-01-28T06:07:43;101834.31;;;16.17;32.07
66396;BME280;53207;51.378;-1.342;2023-01-28T06:10:10;101829.68;;;16.15;32.09
66396;BME280;53207;51.378;-1.342;2023-01-28T06:12:38;101826.24;;;16.61;32.08
66396;BME280;53207;51.378;-1.342;2023-01-28T06:15:06;101826.58;;;16.12;32.05
66396;BME280;53207;51.378;-1.342;2023-01-28T06:17:33;101831.55;;;16.10;32.07
66396;BME280;53207;51.378;-1.342;2023-01-28T06:20:01;101828.97;;;16.32;32.03
66396;BME280;53207;51.378;-1.342;2023-01-28T06:22:28;101824.01;;;16.30;32.04
66396;BME280;53207;51.378;-1.342;2023-01-28T06:24:55;101822.20;;;15.87;31.98
66396;BME280;53207;51.378;-1.342;2023-01-28T06:27:23;101821.04;;;16.06;32.05
66396;BME280;53207;51.378;-1.342;2023-01-28T06:29:50;101824.84;;;16.29;32.10
66396;BME280;53207;51.378;-1.342;2023-01-28T06:32:17;101826.50;;;16.28;32.12
66396;BME280;53207;51.378;-1.342;2023-01-28T06:34:45;101825.97;;;16.27;32.14
66396;BME280;53207;51.378;-1.342;2023-01-28T06:37:12;101827.96;;;16.46;32.25
66396;BME280;53207;51.378;-1.342;2023-01-28T06:39:40;101829.19;;;16.24;32.23
66396;BME280;53207;51.378;-1.342;2023-01-28T06:42:07;101825.98;;;16.22;32.25
66396;BME280;53207;51.378;-1.342;2023-01-28T06:44:34;101825.58;;;16.20;32.25
66396;BME280;53207;51.378;-1.342;2023-01-28T06:47:02;101824.46;;;16.17;32.28
66396;BME280;53207;51.378;-1.342;2023-01-28T06:49:29;101827.20;;;16.44;32.29
66396;BME280;53207;51.378;-1.342;2023-01-28T06:51:56;101830.36;;;16.17;32.30
66396;BME280;53207;51.378;-1.342;2023-01-28T06:54:23;101829.45;;;16.17;32.30
66396;BME280;53207;51.378;-1.342;2023-01-28T06:56:51;101825.92;;;15.89;32.34
66396;BME280;53207;51.378;-1.342;2023-01-28T06:59:18;101829.61;;;16.07;32.40
66396;BME280;53207;51.378;-1.342;2023-01-28T07:01:45;101832.01;;;15.88;32.34
66396;BME280;53207;51.378;-1.342;2023-01-28T07:04:13;101830.94;;;16.13;32.40
66396;BME280;53207;51.378;-1.342;2023-01-28T07:06:40;101836.34;;;15.93;32.39
66396;BME280;53207;51.378;-1.342;2023-01-28T07:09:07;101837.56;;;16.16;32.46
66396;BME280;53207;51.378;-1.342;2023-01-28T07:11:34;101835.45;;;15.91;32.62
66396;BME280;53207;51.378;-1.342;2023-01-28T07:14:02;101830.93;;;15.87;32.79
66396;BME280;53207;51.378;-1.342;2023-01-28T07:16:29;101829.12;;;16.19;32.79
66396;BME280;53207;51.378;-1.342;2023-01-28T07:18:57;101834.55;;;16.27;32.79
66396;BME280;53207;51.378;-1.342;2023-01-28T07:21:24;101837.84;;;16.11;32.83
66396;BME280;53207;51.378;-1.342;2023-01-28T07:23:51;101840.21;;;16.17;32.86
66396;BME280;53207;51.378;-1.342;2023-01-28T07:26:19;101838.47;;;16.46;32.91
66396;BME280;53207;51.378;-1.342;2023-01-28T07:28:46;101836.82;;;16.56;32.83
66396;BME280;53207;51.378;-1.342;2023-01-28T07:31:13;101838.89;;;16.43;32.76
66396;BME280;53207;51.378;-1.342;2023-01-28T07:33:41;101848.53;;;16.55;32.73
66396;BME280;53207;51.378;-1.342;2023-01-28T07:36:08;101848.41;;;16.65;32.61
66396;BME280;53207;51.378;-1.342;2023-01-28T07:38:35;101847.20;;;16.55;32.50
66396;BME280;53207;51.378;-1.342;2023-01-28T07:41:03;101853.17;;;16.86;32.52
66396;BME280;53207;51.378;-1.342;2023-01-28T07:43:30;101851.96;;;16.95;32.47
66396;BME280;53207;51.378;-1.342;2023-01-28T07:45:59;101851.84;;;17.04;32.44
66396;BME280;53207;51.378;-1.342;2023-01-28T07:48:26;101851.28;;;16.92;32.37
66396;BME280;53207;51.378;-1.342;2023-01-28T07:50:57;101845.00;;;17.25;32.29
66396;BME280;53207;51.378;-1.342;2023-01-28T07:53:25;101843.27;;;17.17;32.16
66396;BME280;53207;51.378;-1.342;2023-01-28T07:55:57;101849.54;;;17.24;32.13
66396;BME280;53207;51.378;-1.342;2023-01-28T07:58:23;101851.99;;;17.31;32.04
66396;BME280;53207;51.378;-1.342;2023-01-28T08:00:55;101851.00;;;17.41;31.97
66396;BME280;53207;51.378;-1.342;2023-01-28T08:03:23;101846.36;;;17.49;31.90
66396;BME280;53207;51.378;-1.342;2023-01-28T08:05:51;101846.65;;;17.31;31.83
66396;BME280;53207;51.378;-1.342;2023-01-28T08:08:19;101849.95;;;17.66;31.75
66396;BME280;53207;51.378;-1.342;2023-01-28T08:10:47;101854.21;;;17.47;31.65
66396;BME280;53207;51.378;-1.342;2023-01-28T08:13:15;101852.04;;;17.52;31.63
66396;BME280;53207;51.378;-1.342;2023-01-28T08:15:42;101846.79;;;17.63;31.50
66396;BME280;53207;51.378;-1.342;2023-01-28T08:18:10;101846.37;;;17.66;31.57
66396;BME280;53207;51.378;-1.342;2023-01-28T08:20:39;101843.74;;;17.75;31.53
66396;BME280;53207;51.378;-1.342;2023-01-28T08:23:07;101843.07;;;17.80;31.61
66396;BME280;53207;51.378;-1.342;2023-01-28T08:25:35;101845.63;;;17.88;31.59
66396;BME280;53207;51.378;-1.342;2023-01-28T08:28:03;101843.74;;;17.89;31.68
66396;BME280;53207;51.378;-1.342;2023-01-28T08:30:31;101850.42;;;17.97;31.69
66396;BME280;53207;51.378;-1.342;2023-01-28T08:32:59;101846.71;;;18.02;31.72
66396;BME280;53207;51.378;-1.342;2023-01-28T08:35:27;101846.71;;;17.89;31.66
66396;BME280;53207;51.378;-1.342;2023-01-28T08:37:57;101853.34;;;18.14;31.67
66396;BME280;53207;51.378;-1.342;2023-01-28T08:40:25;101859.07;;;17.72;31.65
66396;BME280;53207;51.378;-1.342;2023-01-28T08:42:53;101862.33;;;18.25;31.63
66396;BME280;53207;51.378;-1.342;2023-01-28T08:45:22;101865.92;;;18.04;31.64
66396;BME280;53207;51.378;-1.342;2023-01-28T08:47:51;101859.63;;;18.33;31.60
66396;BME280;53207;51.378;-1.342;2023-01-28T08:50:20;101860.17;;;18.16;31.56
66396;BME280;53207;51.378;-1.342;2023-01-28T08:52:54;101867.26;;;18.43;31.55
66396;BME280;53207;51.378;-1.342;2023-01-28T08:55:22;101869.38;;;18.28;31.48
66396;BME280;53207;51.378;-1.342;2023-01-28T08:57:50;101874.89;;;18.27;31.50
66396;BME280;53207;51.378;-1.342;2023-01-28T09:00:18;101875.78;;;18.32;31.48
66396;BME280;53207;51.378;-1.342;2023-01-28T09:02:45;101875.87;;;18.36;31.47
66396;BME280;53207;51.378;-1.342;2023-01-28T09:05:12;101878.01;;;18.36;31.45
66396;BME280;53207;51.378;-1.342;2023-01-28T09:07:40;101876.64;;;18.18;31.36
66396;BME280;53207;51.378;-1.342;2023-01-28T09:10:08;101876.38;;;18.69;31.35
66396;BME280;53207;51.378;-1.342;2023-01-28T09:12:36;101882.63;;;18.54;31.27
66396;BME280;53207;51.378;-1.342;2023-01-28T09:15:03;101886.21;;;18.57;31.24
66396;BME280;53207;51.378;-1.342;2023-01-28T09:17:31;101886.28;;;18.56;31.26
66396;BME280;53207;51.378;-1.342;2023-01-28T09:19:58;101886.69;;;18.37;31.25
66396;BME280;53207;51.378;-1.342;2023-01-28T09:22:25;101892.56;;;18.68;31.25
66396;BME280;53207;51.378;-1.342;2023-01-28T09:24:53;101899.04;;;18.72;31.22
66396;BME280;53207;51.378;-1.342;2023-01-28T09:27:20;101906.43;;;18.96;31.23
66396;BME280;53207;51.378;-1.342;2023-01-28T09:29:47;101895.73;;;18.73;31.23
66396;BME280;53207;51.378;-1.342;2023-01-28T09:32:15;101898.91;;;18.54;31.18
66396;BME280;53207;51.378;-1.342;2023-01-28T09:34:42;101892.48;;;19.07;31.19
66396;BME280;53207;51.378;-1.342;2023-01-28T09:37:09;101887.34;;;18.59;31.21
66396;BME280;53207;51.378;-1.342;2023-01-28T09:39:37;101892.14;;;18.93;31.23
66396;BME280;53207;51.378;-1.342;2023-01-28T09:42:17;101895.48;;;18.67;31.26
66396;BME280;53207;51.378;-1.342;2023-01-28T09:44:56;101892.68;;;18.99;31.21
66396;BME280;53207;51.378;-1.342;2023-01-28T09:47:29;101890.49;;;18.78;31.13
66396;BME280;53207;51.378;-1.342;2023-01-28T09:50:02;101893.39;;;18.80;31.03
66396;BME280;53207;51.378;-1.342;2023-01-28T09:52:35;101891.37;;;18.81;30.97
66396;BME280;53207;51.378;-1.342;2023-01-28T09:55:05;101887.95;;;18.81;30.94
66396;BME280;53207;51.378;-1.342;2023-01-28T09:57:37;101886.04;;;19.14;30.81
66396;BME280;53207;51.378;-1.342;2023-01-28T10:00:12;101896.47;;;18.69;30.69
66396;BME280;53207;51.378;-1.342;2023-01-28T10:02:56;101896.53;;;18.90;30.64
66396;BME280;53207;51.378;-1.342;2023-01-28T10:05:33;101900.03;;;18.93;30.52
66396;BME280;53207;51.378;-1.342;2023-01-28T10:08:15;101891.78;;;18.91;30.49
66396;BME280;53207;51.378;-1.342;2023-01-28T10:10:50;101888.68;;;18.92;30.42
66396;BME280;53207;51.378;-1.342;2023-01-28T10:13:31;101897.57;;;18.87;30.43
66396;BME280;53207;51.378;-1.342;2023-01-28T10:16:16;101880.88;;;19.08;30.42
66396;BME280;53207;51.378;-1.342;2023-01-28T10:18:49;101873.76;;;18.78;30.44
66396;BME280;53207;51.378;-1.342;2023-01-28T10:21:23;101866.67;;;18.78;30.42
66396;BME280;53207;51.378;-1.342;2023-01-28T10:23:58;101867.41;;;18.78;30.35
66396;BME280;53207;51.378;-1.342;2023-01-28T10:26:32;101858.34;;;18.77;30.36
66396;BME280;53207;51.378;-1.342;2023-01-28T10:29:11;101849.98;;;18.77;30.42
66396;BME280;53207;51.378;-1.342;2023-01-28T10:31:43;101854.71;;;18.75;30.50
66396;BME280;53207;51.378;-1.342;2023-01-28T10:34:14;101867.28;;;18.71;30.61
66396;BME280;53207;51.378;-1.342;2023-01-28T10:36:42;101865.26;;;18.62;30.73
66396;BME280;53207;51.378;-1.342;2023-01-28T10:39:10;101857.37;;;18.67;30.72
66396;BME280;53207;51.378;-1.342;2023-01-28T10:41:39;101861.34;;;19.15;30.73
66396;BME280;53207;51.378;-1.342;2023-01-28T10:44:12;101852.50;;;18.34;30.77
66396;BME280;53207;51.378;-1.342;2023-01-28T10:46:43;101842.80;;;18.56;30.73
66396;BME280;53207;51.378;-1.342;2023-01-28T10:49:15;101837.79;;;18.76;30.74
66396;BME280;53207;51.378;-1.342;2023-01-28T10:51:44;101834.69;;;18.05;31.12
66396;BME280;53207;51.378;-1.342;2023-01-28T10:54:18;101832.26;;;17.88;31.28
66396;BME280;53207;51.378;-1.342;2023-01-28T10:56:46;101835.16;;;17.82;31.34
66396;BME280;53207;51.378;-1.342;2023-01-28T10:59:22;101831.68;;;17.74;31.40
66396;BME280;53207;51.378;-1.342;2023-01-28T11:01:53;101825.23;;;17.96;31.42
66396;BME280;53207;51.378;-1.342;2023-01-28T11:04:24;101824.95;;;17.66;31.40
66396;BME280;53207;51.378;-1.342;2023-01-28T11:06:56;101822.33;;;17.54;31.50
66396;BME280;53207;51.378;-1.342;2023-01-28T11:09:25;101813.38;;;17.51;31.50
66396;BME280;53207;51.378;-1.342;2023-01-28T11:11:52;101808.72;;;17.98;31.48
66396;BME280;53207;51.378;-1.342;2023-01-28T11:14:22;101806.24;;;17.63;31.58
66396;BME280;53207;51.378;-1.342;2023-01-28T11:16:52;101811.22;;;17.63;31.55
66396;BME280;53207;51.378;-1.342;2023-01-28T11:19:21;101812.66;;;17.54;31.62
66396;BME280;53207;51.378;-1.342;2023-01-28T11:21:54;101811.78;;;17.50;31.64
66396;BME280;53207;51.378;-1.342;2023-01-28T11:24:25;101817.85;;;17.47;31.65
66396;BME280;53207;51.378;-1.342;2023-01-28T11:26:56;101821.80;;;17.43;31.67
66396;BME280;53207;51.378;-1.342;2023-01-28T11:29:26;101826.48;;;17.62;31.68
66396;BME280;53207;51.378;-1.342;2023-01-28T11:31:56;101823.52;;;17.57;31.69
66396;BME280;53207;51.378;-1.342;2023-01-28T11:34:26;101824.63;;;17.59;31.64
66396;BME280;53207;51.378;-1.342;2023-01-28T11:37:01;101827.89;;;17.49;31.71
66396;BME280;53207;51.378;-1.342;2023-01-28T11:39:28;101829.04;;;17.46;31.72
66396;BME280;53207;51.378;-1.342;2023-01-28T11:42:08;101830.24;;;17.12;31.81
66396;BME280;53207;51.378;-1.342;2023-01-28T11:44:37;101832.99;;;17.34;31.80
66396;BME280;53207;51.378;-1.342;2023-01-28T11:47:14;101836.03;;;17.34;31.76
66396;BME280;53207;51.378;-1.342;2023-01-28T11:49:57;101836.13;;;17.27;31.80
66396;BME280;53207;51.378;-1.342;2023-01-28T11:52:37;101839.66;;;17.30;31.73
66396;BME280;53207;51.378;-1.342;2023-01-28T11:55:21;101839.26;;;17.22;31.78
66396;BME280;53207;51.378;-1.342;2023-01-28T11:57:57;101838.13;;;17.19;31.79
66396;BME280;53207;51.378;-1.342;2023-01-28T12:00:37;101830.69;;;17.18;31.78
66396;BME280;53207;51.378;-1.342;2023-01-28T12:03:27;101827.60;;;17.09;31.84
66396;BME280;53207;51.378;-1.342;2023-01-28T12:06:15;101826.84;;;17.04;31.87
66396;BME280;53207;51.378;-1.342;2023-01-28T12:08:55;101822.39;;;17.05;31.84
66396;BME280;53207;51.378;-1.342;2023-01-28T12:11:29;101823.30;;;16.84;31.80
66396;BME280;53207;51.378;-1.342;2023-01-28T12:14:05;101829.07;;;16.97;31.87
66396;BME280;53207;51.378;-1.342;2023-01-28T12:16:44;101836.95;;;16.95;31.86
66396;BME280;53207;51.378;-1.342;2023-01-28T12:19:28;101838.15;;;16.87;31.93
66396;BME280;53207;51.378;-1.342;2023-01-28T12:22:11;101832.61;;;16.84;31.93
66396;BME280;53207;51.378;-1.342;2023-01-28T12:24:57;101832.88;;;16.84;31.91
66396;BME280;53207;51.378;-1.342;2023-01-28T12:27:39;101842.20;;;16.81;31.93
66396;BME280;53207;51.378;-1.342;2023-01-28T12:30:19;101841.27;;;16.77;31.93
66396;BME280;53207;51.378;-1.342;2023-01-28T12:33:00;101836.40;;;16.72;31.99
66396;BME280;53207;51.378;-1.342;2023-01-28T12:35:44;101827.28;;;16.78;31.89
66396;BME280;53207;51.378;-1.342;2023-01-28T12:38:18;101832.77;;;16.69;31.93
66396;BME280;53207;51.378;-1.342;2023-01-28T12:40:56;101827.18;;;16.68;31.96
66396;BME280;53207;51.378;-1.342;2023-01-28T12:43:41;101819.48;;;16.60;32.00
66396;BME280;53207;51.378;-1.342;2023-01-28T12:46:17;101815.90;;;16.63;31.94
66396;BME280;53207;51.378;-1.342;2023-01-28T12:48:52;101823.79;;;16.91;31.90
66396;BME280;53207;51.378;-1.342;2023-01-28T12:51:26;101826.73;;;16.69;31.84
66396;BME280;53207;51.378;-1.342;2023-01-28T12:53:57;101822.30;;;16.80;31.98
66396;BME280;53207;51.378;-1.342;2023-01-28T12:56:30;101820.99;;;16.50;32.00